sensor_id;sensor_type;location;lat;lon;timestamp;P1;durP1;ratioP1;P2;durP2;ratioP2
26040;SDS011;13816;53.628;9.950;2022-09-09T00:00:06;47.93;;;33.90;;
26040;SDS011;13816;53.628;9.950;2022-09-09T00:02:32;45.47;;;33.10;;
26040;SDS011;13816;53.628;9.950;2022-09-09T00:04:59;51.10;;;35.63;;
26040;SDS011;13816;53.628;9.950;2022-09-09T00:10:13;61.77;;;38.67;;
26040;SDS011;13816;53.628;9.950;2022-09-09T00:15:16;63.53;;;39.07;;
26040;SDS011;13816;53.628;9.950;2022-09-09T00:23:06;48.30;;;34.53;;
26040;SDS011;13816;53.628;9.950;2022-09-09T00:28:38;55.87;;;37.63;;
26040;SDS011;13816;53.628;9.950;2022-09-09T00:31:04;49.20;;;35.80;;
26040;SDS011;13816;53.628;9.950;2022-09-09T00:33:36;47.10;;;34.30;;
26040;SDS011;13816;53.628;9.950;2022-09-09T00:36:04;57.50;;;31.60;;
26040;SDS011;13816;53.628;9.950;2022-09-09T00:38:36;40.13;;;31.57;;
26040;SDS011;13816;53.628;9.950;2022-09-09T00:41:26;46.43;;;32.37;;
26040;SDS011;13816;53.628;9.950;2022-09-09T00:44:00;40.13;;;30.50;;
26040;SDS011;13816;53.628;9.950;2022-09-09T00:49:14;46.40;;;33.63;;
26040;SDS011;13816;53.628;9.950;2022-09-09T00:51:44;60.43;;;36.80;;
26040;SDS011;13816;53.628;9.950;2022-09-09T00:54:20;61.37;;;39.37;;
26040;SDS011;13816;53.628;9.950;2022-09-09T00:59:42;61.83;;;39.00;;
26040;SDS011;13816;53.628;9.950;2022-09-09T01:02:28;66.57;;;40.47;;
26040;SDS011;13816;53.628;9.950;2022-09-09T01:04:57;68.23;;;39.97;;
26040;SDS011;13816;53.628;9.950;2022-09-09T01:07:26;65.13;;;38.27;;
26040;SDS011;13816;53.628;9.950;2022-09-09T01:09:54;61.77;;;40.30;;
26040;SDS011;13816;53.628;9.950;2022-09-09T01:12:26;67.13;;;40.83;;
26040;SDS011;13816;53.628;9.950;2022-09-09T01:15:02;75.97;;;42.23;;
26040;SDS011;13816;53.628;9.950;2022-09-09T01:17:46;65.70;;;42.87;;
26040;SDS011;13816;53.628;9.950;2022-09-09T01:20:20;72.47;;;42.10;;
26040;SDS011;13816;53.628;9.950;2022-09-09T01:28:27;63.97;;;39.67;;
26040;SDS011;13816;53.628;9.950;2022-09-09T01:31:00;64.73;;;41.27;;
26040;SDS011;13816;53.628;9.950;2022-09-09T01:33:31;63.83;;;40.47;;
26040;SDS011;13816;53.628;9.950;2022-09-09T01:35:59;59.40;;;40.20;;
26040;SDS011;13816;53.628;9.950;2022-09-09T01:38:31;64.17;;;39.93;;
26040;SDS011;13816;53.628;9.950;2022-09-09T01:40:58;64.90;;;42.30;;
26040;SDS011;13816;53.628;9.950;2022-09-09T01:43:34;56.03;;;40.30;;
26040;SDS011;13816;53.628;9.950;2022-09-09T01:46:00;57.00;;;38.30;;
26040;SDS011;13816;53.628;9.950;2022-09-09T01:48:28;56.20;;;39.70;;
26040;SDS011;13816;53.628;9.950;2022-09-09T01:51:03;64.03;;;40.37;;
26040;SDS011;13816;53.628;9.950;2022-09-09T01:53:29;58.30;;;38.07;;
26040;SDS011;13816;53.628;9.950;2022-09-09T01:56:39;50.37;;;36.03;;
26040;SDS011;13816;53.628;9.950;2022-09-09T02:04:00;55.20;;;34.90;;
26040;SDS011;13816;53.628;9.950;2022-09-09T02:06:37;45.67;;;33.13;;
26040;SDS011;13816;53.628;9.950;2022-09-09T02:09:20;45.10;;;32.03;;
26040;SDS011;13816;53.628;9.950;2022-09-09T02:11:48;48.77;;;34.63;;
26040;SDS011;13816;53.628;9.950;2022-09-09T02:14:27;45.63;;;32.63;;
26040;SDS011;13816;53.628;9.950;2022-09-09T02:16:57;58.10;;;35.10;;
26040;SDS011;13816;53.628;9.950;2022-09-09T02:19:39;49.50;;;33.57;;
26040;SDS011;13816;53.628;9.950;2022-09-09T02:22:19;52.83;;;34.53;;
26040;SDS011;13816;53.628;9.950;2022-09-09T02:24:46;44.20;;;33.30;;
26040;SDS011;13816;53.628;9.950;2022-09-09T02:27:21;41.83;;;30.07;;
26040;SDS011;13816;53.628;9.950;2022-09-09T02:29:48;44.53;;;30.90;;
26040;SDS011;13816;53.628;9.950;2022-09-09T02:32:19;45.03;;;31.30;;
26040;SDS011;13816;53.628;9.950;2022-09-09T02:34:47;45.03;;;31.73;;
26040;SDS011;13816;53.628;9.950;2022-09-09T02:37:15;44.60;;;33.23;;
26040;SDS011;13816;53.628;9.950;2022-09-09T02:39:46;49.50;;;33.47;;
26040;SDS011;13816;53.628;9.950;2022-09-09T02:42:15;43.07;;;30.30;;
26040;SDS011;13816;53.628;9.950;2022-09-09T02:44:43;44.40;;;29.40;;
26040;SDS011;13816;53.628;9.950;2022-09-09T02:52:32;38.60;;;28.93;;
26040;SDS011;13816;53.628;9.950;2022-09-09T02:55:12;45.20;;;28.90;;
26040;SDS011;13816;53.628;9.950;2022-09-09T02:57:45;34.50;;;27.40;;
26040;SDS011;13816;53.628;9.950;2022-09-09T03:00:14;37.17;;;27.50;;
26040;SDS011;13816;53.628;9.950;2022-09-09T03:02:41;42.03;;;27.47;;
26040;SDS011;13816;53.628;9.950;2022-09-09T03:05:07;38.03;;;27.47;;
26040;SDS011;13816;53.628;9.950;2022-09-09T03:07:34;41.70;;;28.73;;
26040;SDS011;13816;53.628;9.950;2022-09-09T03:10:01;42.20;;;28.10;;
26040;SDS011;13816;53.628;9.950;2022-09-09T03:12:28;36.30;;;27.87;;
26040;SDS011;13816;53.628;9.950;2022-09-09T03:14:54;38.93;;;28.63;;
26040;SDS011;13816;53.628;9.950;2022-09-09T03:17:22;41.60;;;28.40;;
26040;SDS011;13816;53.628;9.950;2022-09-09T03:19:53;35.60;;;26.10;;
26040;SDS011;13816;53.628;9.950;2022-09-09T03:22:20;34.97;;;26.50;;
26040;SDS011;13816;53.628;9.950;2022-09-09T03:24:47;33.07;;;25.43;;
26040;SDS011;13816;53.628;9.950;2022-09-09T03:27:14;33.50;;;25.50;;
26040;SDS011;13816;53.628;9.950;2022-09-09T03:29:41;40.93;;;26.93;;
26040;SDS011;13816;53.628;9.950;2022-09-09T03:32:12;38.20;;;27.00;;
26040;SDS011;13816;53.628;9.950;2022-09-09T03:34:40;36.20;;;26.90;;
26040;SDS011;13816;53.628;9.950;2022-09-09T03:37:10;36.03;;;25.57;;
26040;SDS011;13816;53.628;9.950;2022-09-09T03:39:38;40.20;;;27.40;;
26040;SDS011;13816;53.628;9.950;2022-09-09T03:42:06;31.43;;;23.97;;
26040;SDS011;13816;53.628;9.950;2022-09-09T03:44:32;31.37;;;25.10;;
26040;SDS011;13816;53.628;9.950;2022-09-09T03:46:59;32.27;;;24.30;;
26040;SDS011;13816;53.628;9.950;2022-09-09T03:49:26;32.20;;;23.60;;
26040;SDS011;13816;53.628;9.950;2022-09-09T03:51:55;29.70;;;22.83;;
26040;SDS011;13816;53.628;9.950;2022-09-09T03:54:23;32.27;;;24.17;;
26040;SDS011;13816;53.628;9.950;2022-09-09T03:56:49;31.07;;;24.30;;
26040;SDS011;13816;53.628;9.950;2022-09-09T03:59:16;30.10;;;24.80;;
26040;SDS011;13816;53.628;9.950;2022-09-09T04:01:42;30.40;;;22.90;;
26040;SDS011;13816;53.628;9.950;2022-09-09T04:04:08;30.23;;;22.97;;
26040;SDS011;13816;53.628;9.950;2022-09-09T04:06:35;30.23;;;22.53;;
26040;SDS011;13816;53.628;9.950;2022-09-09T04:09:02;33.03;;;23.90;;
26040;SDS011;13816;53.628;9.950;2022-09-09T04:11:30;34.80;;;25.20;;
26040;SDS011;13816;53.628;9.950;2022-09-09T04:13:58;30.53;;;22.90;;
26040;SDS011;13816;53.628;9.950;2022-09-09T04:16:24;32.80;;;23.70;;
26040;SDS011;13816;53.628;9.950;2022-09-09T04:18:51;27.10;;;20.77;;
26040;SDS011;13816;53.628;9.950;2022-09-09T04:21:18;26.27;;;21.50;;
26040;SDS011;13816;53.628;9.950;2022-09-09T04:23:44;28.50;;;21.03;;
26040;SDS011;13816;53.628;9.950;2022-09-09T04:26:13;25.20;;;20.93;;
26040;SDS011;13816;53.628;9.950;2022-09-09T04:28:39;25.43;;;19.90;;
26040;SDS011;13816;53.628;9.950;2022-09-09T04:31:18;25.50;;;19.67;;
26040;SDS011;13816;53.628;9.950;2022-09-09T04:33:46;25.97;;;19.80;;
26040;SDS011;13816;53.628;9.950;2022-09-09T04:36:13;24.20;;;19.53;;
26040;SDS011;13816;53.628;9.950;2022-09-09T04:38:39;25.10;;;19.40;;
26040;SDS011;13816;53.628;9.950;2022-09-09T04:41:05;27.30;;;19.93;;
26040;SDS011;13816;53.628;9.950;2022-09-09T04:43:34;21.23;;;18.97;;
26040;SDS011;13816;53.628;9.950;2022-09-09T04:46:02;23.80;;;19.97;;
26040;SDS011;13816;53.628;9.950;2022-09-09T04:48:28;25.20;;;19.83;;
26040;SDS011;13816;53.628;9.950;2022-09-09T04:50:57;23.10;;;18.60;;
26040;SDS011;13816;53.628;9.950;2022-09-09T04:53:24;24.73;;;20.00;;
26040;SDS011;13816;53.628;9.950;2022-09-09T04:55:52;32.80;;;21.90;;
26040;SDS011;13816;53.628;9.950;2022-09-09T04:58:18;30.80;;;23.67;;
26040;SDS011;13816;53.628;9.950;2022-09-09T05:00:47;27.40;;;21.00;;
26040;SDS011;13816;53.628;9.950;2022-09-09T05:03:15;28.60;;;21.57;;
26040;SDS011;13816;53.628;9.950;2022-09-09T05:05:41;30.73;;;21.83;;
26040;SDS011;13816;53.628;9.950;2022-09-09T05:08:07;30.07;;;22.57;;
26040;SDS011;13816;53.628;9.950;2022-09-09T05:10:36;35.13;;;23.53;;
26040;SDS011;13816;53.628;9.950;2022-09-09T05:13:03;30.43;;;21.90;;
26040;SDS011;13816;53.628;9.950;2022-09-09T05:15:30;32.70;;;22.13;;
26040;SDS011;13816;53.628;9.950;2022-09-09T05:17:57;25.33;;;21.17;;
26040;SDS011;13816;53.628;9.950;2022-09-09T05:20:24;24.30;;;19.03;;
26040;SDS011;13816;53.628;9.950;2022-09-09T05:22:54;26.23;;;18.90;;
26040;SDS011;13816;53.628;9.950;2022-09-09T05:25:21;24.07;;;17.40;;
26040;SDS011;13816;53.628;9.950;2022-09-09T05:27:49;21.93;;;17.77;;
26040;SDS011;13816;53.628;9.950;2022-09-09T05:30:15;23.03;;;15.80;;
26040;SDS011;13816;53.628;9.950;2022-09-09T05:32:44;24.93;;;18.17;;
26040;SDS011;13816;53.628;9.950;2022-09-09T05:35:12;24.43;;;15.40;;
26040;SDS011;13816;53.628;9.950;2022-09-09T05:37:38;24.50;;;16.73;;
26040;SDS011;13816;53.628;9.950;2022-09-09T05:40:05;20.40;;;16.40;;
26040;SDS011;13816;53.628;9.950;2022-09-09T05:42:40;20.90;;;16.30;;
26040;SDS011;13816;53.628;9.950;2022-09-09T05:45:12;22.73;;;15.70;;
26040;SDS011;13816;53.628;9.950;2022-09-09T05:47:38;20.77;;;14.37;;
26040;SDS011;13816;53.628;9.950;2022-09-09T05:50:08;21.97;;;16.73;;
26040;SDS011;13816;53.628;9.950;2022-09-09T05:52:34;15.77;;;13.50;;
26040;SDS011;13816;53.628;9.950;2022-09-09T05:55:02;19.13;;;14.80;;
26040;SDS011;13816;53.628;9.950;2022-09-09T05:57:30;18.83;;;13.63;;
26040;SDS011;13816;53.628;9.950;2022-09-09T05:59:56;21.80;;;14.67;;
26040;SDS011;13816;53.628;9.950;2022-09-09T06:02:22;15.67;;;13.60;;
26040;SDS011;13816;53.628;9.950;2022-09-09T06:04:49;25.17;;;14.73;;
26040;SDS011;13816;53.628;9.950;2022-09-09T06:07:15;17.97;;;14.10;;
26040;SDS011;13816;53.628;9.950;2022-09-09T06:09:41;19.37;;;14.10;;
26040;SDS011;13816;53.628;9.950;2022-09-09T06:12:08;15.00;;;13.23;;
26040;SDS011;13816;53.628;9.950;2022-09-09T06:14:37;23.20;;;14.20;;
26040;SDS011;13816;53.628;9.950;2022-09-09T06:17:03;14.00;;;12.60;;
26040;SDS011;13816;53.628;9.950;2022-09-09T06:19:30;15.40;;;12.80;;
26040;SDS011;13816;53.628;9.950;2022-09-09T06:21:57;15.37;;;13.13;;
26040;SDS011;13816;53.628;9.950;2022-09-09T06:24:25;21.93;;;13.43;;
26040;SDS011;13816;53.628;9.950;2022-09-09T06:26:52;17.47;;;13.17;;
26040;SDS011;13816;53.628;9.950;2022-09-09T06:29:22;15.27;;;11.70;;
26040;SDS011;13816;53.628;9.950;2022-09-09T06:31:50;15.77;;;11.90;;
26040;SDS011;13816;53.628;9.950;2022-09-09T06:34:21;13.83;;;11.90;;
26040;SDS011;13816;53.628;9.950;2022-09-09T06:36:51;18.07;;;11.53;;
26040;SDS011;13816;53.628;9.950;2022-09-09T06:39:18;13.43;;;12.00;;
26040;SDS011;13816;53.628;9.950;2022-09-09T06:41:45;15.17;;;11.97;;
26040;SDS011;13816;53.628;9.950;2022-09-09T06:44:38;20.23;;;12.63;;
26040;SDS011;13816;53.628;9.950;2022-09-09T06:47:07;13.40;;;11.60;;
26040;SDS011;13816;53.628;9.950;2022-09-09T06:49:33;15.40;;;11.30;;
26040;SDS011;13816;53.628;9.950;2022-09-09T06:52:02;14.20;;;10.27;;
26040;SDS011;13816;53.628;9.950;2022-09-09T06:54:29;13.97;;;10.20;;
26040;SDS011;13816;53.628;9.950;2022-09-09T06:56:55;15.80;;;10.73;;
26040;SDS011;13816;53.628;9.950;2022-09-09T06:59:22;14.77;;;10.30;;
26040;SDS011;13816;53.628;9.950;2022-09-09T07:01:51;12.60;;;10.83;;
26040;SDS011;13816;53.628;9.950;2022-09-09T07:04:19;18.57;;;9.50;;
26040;SDS011;13816;53.628;9.950;2022-09-09T07:06:46;10.77;;;9.63;;
26040;SDS011;13816;53.628;9.950;2022-09-09T07:09:16;16.80;;;9.00;;
26040;SDS011;13816;53.628;9.950;2022-09-09T07:11:46;12.33;;;9.60;;
26040;SDS011;13816;53.628;9.950;2022-09-09T07:17:02;12.27;;;9.20;;
26040;SDS011;13816;53.628;9.950;2022-09-09T07:19:34;12.40;;;10.70;;
26040;SDS011;13816;53.628;9.950;2022-09-09T07:22:02;23.23;;;12.00;;
26040;SDS011;13816;53.628;9.950;2022-09-09T07:24:37;15.30;;;10.00;;
26040;SDS011;13816;53.628;9.950;2022-09-09T07:27:04;15.57;;;8.97;;
26040;SDS011;13816;53.628;9.950;2022-09-09T07:29:32;11.60;;;8.30;;
26040;SDS011;13816;53.628;9.950;2022-09-09T07:32:01;13.43;;;8.00;;
26040;SDS011;13816;53.628;9.950;2022-09-09T07:34:37;19.77;;;7.70;;
26040;SDS011;13816;53.628;9.950;2022-09-09T07:37:06;16.67;;;7.17;;
26040;SDS011;13816;53.628;9.950;2022-09-09T07:39:39;8.10;;;7.10;;
26040;SDS011;13816;53.628;9.950;2022-09-09T07:42:07;15.13;;;6.67;;
26040;SDS011;13816;53.628;9.950;2022-09-09T07:44:44;9.20;;;5.77;;
26040;SDS011;13816;53.628;9.950;2022-09-09T07:47:15;11.93;;;6.43;;
26040;SDS011;13816;53.628;9.950;2022-09-09T07:49:44;7.07;;;4.80;;
26040;SDS011;13816;53.628;9.950;2022-09-09T07:52:18;6.10;;;4.73;;
26040;SDS011;13816;53.628;9.950;2022-09-09T07:54:50;5.93;;;4.40;;
26040;SDS011;13816;53.628;9.950;2022-09-09T07:57:20;8.40;;;5.03;;
26040;SDS011;13816;53.628;9.950;2022-09-09T08:00:11;14.10;;;4.57;;
26040;SDS011;13816;53.628;9.950;2022-09-09T08:02:47;5.50;;;3.80;;
26040;SDS011;13816;53.628;9.950;2022-09-09T08:05:17;8.10;;;5.00;;
26040;SDS011;13816;53.628;9.950;2022-09-09T08:07:45;11.40;;;4.97;;
26040;SDS011;13816;53.628;9.950;2022-09-09T08:10:14;10.60;;;5.10;;
26040;SDS011;13816;53.628;9.950;2022-09-09T08:12:45;8.10;;;4.97;;
26040;SDS011;13816;53.628;9.950;2022-09-09T08:15:19;8.57;;;5.10;;
26040;SDS011;13816;53.628;9.950;2022-09-09T08:17:46;6.23;;;4.70;;
26040;SDS011;13816;53.628;9.950;2022-09-09T08:20:19;8.93;;;4.97;;
26040;SDS011;13816;53.628;9.950;2022-09-09T08:22:49;8.20;;;4.70;;
26040;SDS011;13816;53.628;9.950;2022-09-09T08:25:18;7.30;;;4.77;;
26040;SDS011;13816;53.628;9.950;2022-09-09T08:27:44;4.90;;;4.10;;
26040;SDS011;13816;53.628;9.950;2022-09-09T08:30:14;5.60;;;3.87;;
26040;SDS011;13816;53.628;9.950;2022-09-09T08:33:01;8.83;;;4.73;;
26040;SDS011;13816;53.628;9.950;2022-09-09T08:35:32;7.80;;;4.63;;
26040;SDS011;13816;53.628;9.950;2022-09-09T08:38:03;9.23;;;4.13;;
26040;SDS011;13816;53.628;9.950;2022-09-09T08:40:32;7.20;;;4.40;;
26040;SDS011;13816;53.628;9.950;2022-09-09T08:43:06;6.83;;;3.80;;
26040;SDS011;13816;53.628;9.950;2022-09-09T08:45:44;10.03;;;3.80;;
26040;SDS011;13816;53.628;9.950;2022-09-09T08:48:32;4.73;;;3.60;;
26040;SDS011;13816;53.628;9.950;2022-09-09T08:51:29;6.17;;;3.37;;
26040;SDS011;13816;53.628;9.950;2022-09-09T08:54:30;8.50;;;3.77;;
26040;SDS011;13816;53.628;9.950;2022-09-09T08:57:49;6.17;;;3.30;;
26040;SDS011;13816;53.628;9.950;2022-09-09T09:10:49;8.53;;;2.87;;
26040;SDS011;13816;53.628;9.950;2022-09-09T09:14:02;7.67;;;3.17;;
26040;SDS011;13816;53.628;9.950;2022-09-09T09:21:36;5.07;;;2.40;;
26040;SDS011;13816;53.628;9.950;2022-09-09T09:40:51;5.07;;;1.80;;
26040;SDS011;13816;53.628;9.950;2022-09-09T09:43:57;11.90;;;1.90;;
26040;SDS011;13816;53.628;9.950;2022-09-09T09:50:01;5.57;;;1.30;;
26040;SDS011;13816;53.628;9.950;2022-09-09T09:52:37;3.20;;;2.07;;
26040;SDS011;13816;53.628;9.950;2022-09-09T09:55:32;3.40;;;1.60;;
26040;SDS011;13816;53.628;9.950;2022-09-09T09:58:13;3.63;;;1.60;;
26040;SDS011;13816;53.628;9.950;2022-09-09T10:01:38;12.97;;;2.17;;
26040;SDS011;13816;53.628;9.950;2022-09-09T10:04:21;2.67;;;1.57;;
26040;SDS011;13816;53.628;9.950;2022-09-09T10:07:12;4.10;;;2.50;;
26040;SDS011;13816;53.628;9.950;2022-09-09T10:09:43;7.10;;;2.20;;
26040;SDS011;13816;53.628;9.950;2022-09-09T10:26:16;5.87;;;2.33;;
26040;SDS011;13816;53.628;9.950;2022-09-09T10:31:57;8.23;;;1.80;;
26040;SDS011;13816;53.628;9.950;2022-09-09T10:41:13;4.00;;;1.67;;
26040;SDS011;13816;53.628;9.950;2022-09-09T11:46:06;5.73;;;1.20;;
26040;SDS011;13816;53.628;9.950;2022-09-09T12:47:57;13.50;;;2.43;;
26040;SDS011;13816;53.628;9.950;2022-09-09T12:54:51;15.80;;;3.40;;
26040;SDS011;13816;53.628;9.950;2022-09-09T12:58:29;5.67;;;2.53;;
26040;SDS011;13816;53.628;9.950;2022-09-09T13:05:54;7.17;;;2.47;;
26040;SDS011;13816;53.628;9.950;2022-09-09T13:12:47;8.77;;;2.90;;
26040;SDS011;13816;53.628;9.950;2022-09-09T13:16:01;8.57;;;2.50;;
26040;SDS011;13816;53.628;9.950;2022-09-09T13:22:55;13.03;;;3.03;;
26040;SDS011;13816;53.628;9.950;2022-09-09T13:26:06;11.17;;;3.17;;
26040;SDS011;13816;53.628;9.950;2022-09-09T13:28:33;11.30;;;3.57;;
26040;SDS011;13816;53.628;9.950;2022-09-09T13:31:04;16.80;;;4.17;;
26040;SDS011;13816;53.628;9.950;2022-09-09T13:33:33;6.63;;;3.93;;
26040;SDS011;13816;53.628;9.950;2022-09-09T13:36:01;8.80;;;3.60;;
26040;SDS011;13816;53.628;9.950;2022-09-09T13:38:31;8.73;;;2.00;;
26040;SDS011;13816;53.628;9.950;2022-09-09T13:41:00;3.50;;;2.00;;
26040;SDS011;13816;53.628;9.950;2022-09-09T13:43:45;6.27;;;2.40;;
26040;SDS011;13816;53.628;9.950;2022-09-09T13:46:26;4.57;;;2.30;;
26040;SDS011;13816;53.628;9.950;2022-09-09T13:48:58;6.83;;;2.57;;
26040;SDS011;13816;53.628;9.950;2022-09-09T13:51:34;8.93;;;2.90;;
26040;SDS011;13816;53.628;9.950;2022-09-09T13:54:06;3.40;;;1.97;;
26040;SDS011;13816;53.628;9.950;2022-09-09T13:56:33;5.50;;;1.90;;
26040;SDS011;13816;53.628;9.950;2022-09-09T13:59:00;6.60;;;2.43;;
26040;SDS011;13816;53.628;9.950;2022-09-09T14:01:29;4.17;;;2.27;;
26040;SDS011;13816;53.628;9.950;2022-09-09T14:03:56;6.73;;;2.70;;
26040;SDS011;13816;53.628;9.950;2022-09-09T14:06:24;4.90;;;2.97;;
26040;SDS011;13816;53.628;9.950;2022-09-09T14:08:50;6.67;;;3.33;;
26040;SDS011;13816;53.628;9.950;2022-09-09T14:11:20;6.90;;;3.20;;
26040;SDS011;13816;53.628;9.950;2022-09-09T14:13:47;5.30;;;2.93;;
26040;SDS011;13816;53.628;9.950;2022-09-09T14:16:15;7.40;;;3.90;;
26040;SDS011;13816;53.628;9.950;2022-09-09T14:18:43;7.20;;;3.80;;
26040;SDS011;13816;53.628;9.950;2022-09-09T14:21:09;11.17;;;4.07;;
26040;SDS011;13816;53.628;9.950;2022-09-09T14:23:41;8.47;;;3.73;;
26040;SDS011;13816;53.628;9.950;2022-09-09T14:26:10;10.10;;;3.90;;
26040;SDS011;13816;53.628;9.950;2022-09-09T14:28:43;13.63;;;4.13;;
26040;SDS011;13816;53.628;9.950;2022-09-09T14:31:15;9.00;;;3.87;;
26040;SDS011;13816;53.628;9.950;2022-09-09T14:33:44;9.93;;;4.77;;
26040;SDS011;13816;53.628;9.950;2022-09-09T14:36:17;7.60;;;4.43;;
26040;SDS011;13816;53.628;9.950;2022-09-09T14:38:51;11.00;;;4.50;;
26040;SDS011;13816;53.628;9.950;2022-09-09T14:41:18;10.53;;;4.70;;
26040;SDS011;13816;53.628;9.950;2022-09-09T14:46:29;7.57;;;4.30;;
26040;SDS011;13816;53.628;9.950;2022-09-09T14:49:05;9.40;;;4.30;;
26040;SDS011;13816;53.628;9.950;2022-09-09T14:51:32;6.17;;;3.90;;
26040;SDS011;13816;53.628;9.950;2022-09-09T14:54:00;6.47;;;4.53;;
26040;SDS011;13816;53.628;9.950;2022-09-09T14:56:29;11.80;;;4.73;;
26040;SDS011;13816;53.628;9.950;2022-09-09T14:58:58;7.67;;;4.23;;
26040;SDS011;13816;53.628;9.950;2022-09-09T15:01:31;11.87;;;4.50;;
26040;SDS011;13816;53.628;9.950;2022-09-09T15:04:02;12.60;;;4.77;;
26040;SDS011;13816;53.628;9.950;2022-09-09T15:06:30;8.87;;;4.17;;
26040;SDS011;13816;53.628;9.950;2022-09-09T15:08:59;9.50;;;4.40;;
26040;SDS011;13816;53.628;9.950;2022-09-09T15:11:27;8.40;;;3.60;;
26040;SDS011;13816;53.628;9.950;2022-09-09T15:13:57;7.93;;;3.37;;
26040;SDS011;13816;53.628;9.950;2022-09-09T15:16:25;5.60;;;2.87;;
26040;SDS011;13816;53.628;9.950;2022-09-09T15:18:58;5.67;;;3.27;;
26040;SDS011;13816;53.628;9.950;2022-09-09T15:21:28;7.47;;;3.10;;
26040;SDS011;13816;53.628;9.950;2022-09-09T15:23:57;5.33;;;3.00;;
26040;SDS011;13816;53.628;9.950;2022-09-09T15:26:24;8.87;;;3.30;;
26040;SDS011;13816;53.628;9.950;2022-09-09T15:29:08;4.10;;;2.90;;
26040;SDS011;13816;53.628;9.950;2022-09-09T15:34:33;10.30;;;2.90;;
26040;SDS011;13816;53.628;9.950;2022-09-09T15:37:26;3.57;;;2.73;;
26040;SDS011;13816;53.628;9.950;2022-09-09T15:39:58;5.53;;;3.20;;
26040;SDS011;13816;53.628;9.950;2022-09-09T15:42:45;5.20;;;3.13;;
26040;SDS011;13816;53.628;9.950;2022-09-09T15:45:15;6.10;;;3.33;;
26040;SDS011;13816;53.628;9.950;2022-09-09T15:47:46;6.30;;;4.00;;
26040;SDS011;13816;53.628;9.950;2022-09-09T15:50:14;7.33;;;3.40;;
26040;SDS011;13816;53.628;9.950;2022-09-09T15:52:42;8.60;;;3.63;;
26040;SDS011;13816;53.628;9.950;2022-09-09T15:55:08;5.80;;;3.30;;
26040;SDS011;13816;53.628;9.950;2022-09-09T15:57:37;7.33;;;3.67;;
26040;SDS011;13816;53.628;9.950;2022-09-09T16:00:09;8.10;;;3.50;;
26040;SDS011;13816;53.628;9.950;2022-09-09T16:02:38;5.57;;;3.70;;
26040;SDS011;13816;53.628;9.950;2022-09-09T16:05:05;9.23;;;3.30;;
26040;SDS011;13816;53.628;9.950;2022-09-09T16:08:02;13.00;;;4.10;;
26040;SDS011;13816;53.628;9.950;2022-09-09T16:13:47;7.77;;;3.00;;
26040;SDS011;13816;53.628;9.950;2022-09-09T16:16:16;4.17;;;2.73;;
26040;SDS011;13816;53.628;9.950;2022-09-09T16:18:44;11.13;;;2.60;;
26040;SDS011;13816;53.628;9.950;2022-09-09T16:21:18;4.57;;;2.90;;
26040;SDS011;13816;53.628;9.950;2022-09-09T16:23:45;4.90;;;2.37;;
26040;SDS011;13816;53.628;9.950;2022-09-09T16:26:12;6.80;;;2.90;;
26040;SDS011;13816;53.628;9.950;2022-09-09T16:28:39;4.53;;;2.80;;
26040;SDS011;13816;53.628;9.950;2022-09-09T16:31:10;5.87;;;2.70;;
26040;SDS011;13816;53.628;9.950;2022-09-09T16:33:36;3.63;;;2.37;;
26040;SDS011;13816;53.628;9.950;2022-09-09T16:36:08;7.07;;;2.40;;
26040;SDS011;13816;53.628;9.950;2022-09-09T16:38:39;9.07;;;2.60;;
26040;SDS011;13816;53.628;9.950;2022-09-09T16:41:06;7.80;;;2.80;;
26040;SDS011;13816;53.628;9.950;2022-09-09T16:49:40;6.60;;;3.03;;
26040;SDS011;13816;53.628;9.950;2022-09-09T16:52:07;6.30;;;2.77;;
26040;SDS011;13816;53.628;9.950;2022-09-09T16:54:45;7.80;;;3.00;;
26040;SDS011;13816;53.628;9.950;2022-09-09T16:57:24;3.70;;;2.57;;
26040;SDS011;13816;53.628;9.950;2022-09-09T16:59:53;4.07;;;2.30;;
26040;SDS011;13816;53.628;9.950;2022-09-09T17:02:22;5.40;;;2.40;;
26040;SDS011;13816;53.628;9.950;2022-09-09T17:04:49;3.43;;;2.13;;
26040;SDS011;13816;53.628;9.950;2022-09-09T17:07:18;4.30;;;2.70;;
26040;SDS011;13816;53.628;9.950;2022-09-09T17:09:48;4.90;;;2.37;;
26040;SDS011;13816;53.628;9.950;2022-09-09T17:16:07;6.07;;;2.77;;
26040;SDS011;13816;53.628;9.950;2022-09-09T17:22:11;5.23;;;2.47;;
26040;SDS011;13816;53.628;9.950;2022-09-09T17:24:40;8.87;;;3.10;;
26040;SDS011;13816;53.628;9.950;2022-09-09T17:27:12;6.53;;;3.53;;
26040;SDS011;13816;53.628;9.950;2022-09-09T17:29:39;4.30;;;2.60;;
26040;SDS011;13816;53.628;9.950;2022-09-09T17:32:11;7.40;;;2.83;;
26040;SDS011;13816;53.628;9.950;2022-09-09T17:34:41;4.23;;;2.77;;
26040;SDS011;13816;53.628;9.950;2022-09-09T17:37:14;6.77;;;3.10;;
26040;SDS011;13816;53.628;9.950;2022-09-09T17:39:40;6.43;;;3.10;;
26040;SDS011;13816;53.628;9.950;2022-09-09T17:45:41;3.80;;;3.00;;
26040;SDS011;13816;53.628;9.950;2022-09-09T18:02:47;5.40;;;2.80;;
26040;SDS011;13816;53.628;9.950;2022-09-09T18:09:02;3.00;;;2.57;;
26040;SDS011;13816;53.628;9.950;2022-09-09T18:11:52;7.03;;;3.50;;
26040;SDS011;13816;53.628;9.950;2022-09-09T18:22:00;3.60;;;3.30;;
26040;SDS011;13816;53.628;9.950;2022-09-09T19:18:50;6.93;;;5.30;;
26040;SDS011;13816;53.628;9.950;2022-09-09T20:16:51;8.27;;;6.47;;
26040;SDS011;13816;53.628;9.950;2022-09-09T20:19:18;8.37;;;7.50;;
26040;SDS011;13816;53.628;9.950;2022-09-09T20:21:45;16.67;;;7.37;;
26040;SDS011;13816;53.628;9.950;2022-09-09T20:24:16;11.23;;;7.10;;
26040;SDS011;13816;53.628;9.950;2022-09-09T20:26:43;7.80;;;6.10;;
26040;SDS011;13816;53.628;9.950;2022-09-09T20:29:11;9.70;;;7.10;;
26040;SDS011;13816;53.628;9.950;2022-09-09T20:31:38;13.30;;;7.30;;
26040;SDS011;13816;53.628;9.950;2022-09-09T20:34:05;9.97;;;7.20;;
26040;SDS011;13816;53.628;9.950;2022-09-09T20:36:34;9.00;;;7.60;;
26040;SDS011;13816;53.628;9.950;2022-09-09T20:39:21;11.93;;;8.00;;
26040;SDS011;13816;53.628;9.950;2022-09-09T20:41:47;11.27;;;7.73;;
26040;SDS011;13816;53.628;9.950;2022-09-09T20:44:20;8.87;;;7.07;;
26040;SDS011;13816;53.628;9.950;2022-09-09T20:46:52;8.00;;;7.20;;
26040;SDS011;13816;53.628;9.950;2022-09-09T20:49:26;12.47;;;8.23;;
26040;SDS011;13816;53.628;9.950;2022-09-09T20:51:54;11.13;;;8.30;;
26040;SDS011;13816;53.628;9.950;2022-09-09T20:54:21;11.20;;;8.10;;
26040;SDS011;13816;53.628;9.950;2022-09-09T20:56:48;9.10;;;7.53;;
26040;SDS011;13816;53.628;9.950;2022-09-09T20:59:15;10.83;;;7.50;;
26040;SDS011;13816;53.628;9.950;2022-09-09T21:01:42;9.10;;;7.03;;
26040;SDS011;13816;53.628;9.950;2022-09-09T21:04:08;7.33;;;6.60;;
26040;SDS011;13816;53.628;9.950;2022-09-09T21:06:34;8.00;;;7.10;;
26040;SDS011;13816;53.628;9.950;2022-09-09T21:09:01;8.73;;;7.70;;
26040;SDS011;13816;53.628;9.950;2022-09-09T21:11:27;8.20;;;7.37;;
26040;SDS011;13816;53.628;9.950;2022-09-09T21:13:53;7.67;;;6.80;;
26040;SDS011;13816;53.628;9.950;2022-09-09T21:16:20;11.00;;;8.77;;
26040;SDS011;13816;53.628;9.950;2022-09-09T21:18:47;9.13;;;6.70;;
26040;SDS011;13816;53.628;9.950;2022-09-09T21:21:19;9.20;;;7.20;;
26040;SDS011;13816;53.628;9.950;2022-09-09T21:23:48;8.63;;;6.33;;
26040;SDS011;13816;53.628;9.950;2022-09-09T21:26:14;10.30;;;6.57;;
26040;SDS011;13816;53.628;9.950;2022-09-09T21:28:41;13.13;;;7.27;;
26040;SDS011;13816;53.628;9.950;2022-09-09T21:31:11;7.63;;;6.83;;
26040;SDS011;13816;53.628;9.950;2022-09-09T21:33:38;9.43;;;7.57;;
26040;SDS011;13816;53.628;9.950;2022-09-09T21:36:05;15.63;;;8.20;;